Dahlgren, Virginia
Current Conditions -  °F | °C
As of 3:56 PM on Tuesday 25 Nov 2014 (Local Time) from KNYG Reporting Station
Overcast Overcast  
Wind Chill: 52°   Ceiling: 15000
Heat Index: 52°   Visibility: 10mi
Dew Point: 36°   Wind: 0mph
Humidity: 54%   Direction: NA
Pressure: 30.06"   Gusts: NA
Location:  38.33°N, 77.05°W
Report Text: KNYG 252056Z 00000KT 10SM BKN150 OVC200 11/02 A3006 RMK AO2 SLP180 T01110022 55002 $
Loading
Personal Weather Stations






























Interactive Weather Map New forecast layout! Learn more

10-Day Weather Forecast

Advertisements
Track Severe Weather on mobile